createdAt,value
2022-10-05T00:01:03.041Z,17.83
2022-10-05T00:03:42.542Z,17.00
2022-10-05T00:06:16.798Z,17.67
2022-10-05T00:09:00.847Z,14.97
2022-10-05T00:11:29.622Z,16.07
2022-10-05T00:20:15.963Z,17.03
2022-10-05T00:22:44.646Z,17.67
2022-10-05T00:25:16.228Z,21.73
2022-10-05T00:27:47.260Z,20.43
2022-10-05T00:30:18.727Z,21.07
2022-10-05T00:32:47.693Z,21.17
2022-10-05T00:35:17.811Z,18.57
2022-10-05T00:37:48.265Z,23.17
2022-10-05T00:40:45.356Z,17.83
2022-10-05T00:43:33.346Z,16.97
2022-10-05T00:46:08.748Z,18.73
2022-10-05T00:48:52.560Z,15.43
2022-10-05T00:51:24.122Z,19.50
2022-10-05T00:54:04.463Z,18.97
2022-10-05T00:56:52.414Z,17.13
2022-10-05T00:59:29.634Z,18.60
2022-10-05T01:02:22.229Z,17.17
2022-10-05T01:05:01.314Z,15.30
2022-10-05T01:07:47.846Z,17.47
2022-10-05T01:10:31.542Z,14.97
2022-10-05T01:13:14.446Z,12.80
2022-10-05T01:15:52.981Z,14.97
2022-10-05T01:18:52.218Z,10.80
2022-10-05T01:21:23.854Z,16.77
2022-10-05T01:23:58.109Z,15.60
2022-10-05T01:27:04.796Z,17.17
2022-10-05T01:29:36.360Z,8.93
2022-10-05T01:32:34.785Z,8.60
2022-10-05T01:35:09.053Z,9.80
2022-10-05T01:37:52.763Z,9.73
2022-10-05T01:40:35.366Z,10.73
2022-10-05T01:43:32.833Z,13.43
2022-10-05T01:46:22.609Z,12.57
2022-10-05T01:48:59.789Z,10.20
2022-10-05T01:51:49.637Z,13.07
2022-10-05T01:54:30.079Z,12.40
2022-10-05T01:57:16.319Z,12.67
2022-10-05T02:00:04.676Z,14.87
2022-10-05T02:02:39.133Z,13.47
2022-10-05T02:05:19.045Z,12.27
2022-10-05T02:08:08.830Z,12.47
2022-10-05T02:10:41.434Z,17.87
2022-10-05T02:13:29.647Z,18.17
2022-10-05T02:16:05.222Z,16.47
2022-10-05T02:18:36.750Z,14.87
2022-10-05T02:21:10.883Z,12.00
2022-10-05T02:23:42.412Z,11.70
2022-10-05T02:26:15.796Z,13.53
2022-10-05T02:28:47.367Z,14.17
2022-10-05T02:31:21.012Z,13.47
2022-10-05T02:33:51.046Z,14.70
2022-10-05T02:36:25.362Z,21.27
2022-10-05T02:39:16.622Z,15.47
2022-10-05T02:41:51.146Z,13.83
2022-10-05T02:44:28.468Z,11.80
2022-10-05T02:47:02.106Z,17.23
2022-10-05T02:49:50.205Z,11.73
2022-10-05T02:52:34.057Z,13.90
2022-10-05T02:55:17.856Z,13.83
2022-10-05T02:57:58.059Z,17.43
2022-10-05T03:00:28.842Z,12.77
2022-10-05T03:03:18.378Z,16.10
2022-10-05T03:05:55.841Z,15.53
2022-10-05T03:08:27.414Z,15.50
2022-10-05T03:11:10.944Z,16.77
2022-10-05T03:13:51.171Z,11.97
2022-10-05T03:16:47.102Z,13.33
2022-10-05T03:19:24.654Z,16.20
2022-10-05T03:22:04.799Z,13.87
2022-10-05T03:24:45.910Z,16.13
2022-10-05T03:27:31.885Z,11.47
2022-10-05T03:30:15.382Z,12.90
2022-10-05T03:33:06.290Z,11.43
2022-10-05T03:35:55.889Z,9.33
2022-10-05T03:38:47.129Z,11.13
2022-10-05T03:41:27.369Z,10.57
2022-10-05T03:44:11.019Z,13.00
2022-10-05T03:47:11.332Z,7.73
2022-10-05T03:50:09.907Z,11.50
2022-10-05T03:52:41.560Z,12.53
2022-10-05T03:55:24.470Z,14.93
2022-10-05T03:57:55.679Z,14.43
2022-10-05T04:00:27.075Z,10.77
2022-10-05T04:03:04.976Z,11.17
2022-10-05T04:05:42.159Z,12.47
2022-10-05T04:08:47.880Z,15.23
2022-10-05T04:11:24.555Z,11.47
2022-10-05T04:13:59.147Z,13.63
2022-10-05T04:16:32.410Z,9.00
2022-10-05T04:19:22.211Z,10.20
2022-10-05T04:22:15.818Z,10.57
2022-10-05T04:24:56.098Z,15.00
2022-10-05T04:27:44.612Z,14.63
2022-10-05T04:33:45.041Z,10.80
2022-10-05T04:36:35.994Z,16.43
2022-10-05T04:39:12.588Z,13.93
2022-10-05T04:41:53.120Z,15.13
2022-10-05T04:45:11.249Z,12.63
2022-10-05T04:48:16.774Z,18.10
2022-10-05T05:14:02.434Z,16.83
2022-10-05T05:16:41.917Z,17.33
2022-10-05T05:19:31.510Z,21.87
2022-10-05T05:22:05.737Z,15.07
2022-10-05T05:24:55.796Z,16.97
2022-10-05T05:27:52.670Z,23.80
2022-10-05T05:30:24.769Z,17.30
2022-10-05T05:33:16.043Z,28.80
2022-10-05T05:36:11.800Z,17.50
2022-10-05T05:38:49.448Z,20.70
2022-10-05T05:41:32.663Z,19.27
2022-10-05T05:44:04.309Z,19.63
2022-10-05T05:49:24.018Z,23.07
2022-10-05T05:51:58.631Z,21.07
2022-10-05T05:54:39.356Z,17.30
2022-10-05T05:57:26.336Z,19.93
2022-10-05T06:00:16.299Z,24.00
2022-10-05T06:02:50.851Z,23.80
2022-10-05T06:05:25.252Z,23.73
2022-10-05T06:07:56.669Z,22.60
2022-10-05T06:10:28.297Z,28.03
2022-10-05T06:13:01.706Z,24.90
2022-10-05T06:15:47.609Z,30.53
2022-10-05T06:18:24.680Z,21.60
2022-10-05T06:21:17.658Z,25.60
2022-10-05T06:23:55.033Z,21.47
2022-10-05T06:26:44.930Z,24.40
2022-10-05T06:29:19.643Z,23.20
2022-10-05T06:32:00.408Z,16.90
2022-10-05T06:34:32.008Z,17.57
2022-10-05T06:37:03.854Z,15.97
2022-10-05T06:39:44.477Z,14.03
2022-10-05T06:42:22.038Z,25.47
2022-10-05T06:45:04.260Z,18.50
2022-10-05T06:47:44.884Z,12.93
2022-10-05T06:50:16.557Z,17.53
2022-10-05T06:52:54.297Z,19.07
2022-10-05T06:55:37.958Z,19.23
2022-10-05T06:58:28.135Z,15.53
2022-10-05T07:01:02.839Z,16.00
2022-10-05T07:03:40.428Z,14.40
2022-10-05T07:06:17.627Z,21.57
2022-10-05T07:08:51.746Z,16.25
2022-10-05T07:11:35.711Z,18.20
2022-10-05T07:14:22.341Z,16.90
2022-10-05T07:17:33.289Z,26.07
2022-10-05T07:20:03.932Z,16.33
2022-10-05T07:22:35.623Z,20.00
2022-10-05T07:25:16.083Z,18.70
2022-10-05T07:27:53.835Z,22.07
2022-10-05T07:30:23.200Z,17.75
2022-10-05T07:33:21.464Z,20.25
2022-10-05T07:36:16.835Z,20.23
2022-10-05T07:38:57.368Z,20.27
2022-10-05T07:41:29.337Z,20.08
2022-10-05T07:44:16.148Z,24.52
2022-10-05T07:46:59.518Z,16.50
2022-10-05T07:49:42.938Z,18.90
2022-10-05T07:52:23.640Z,32.13
2022-10-05T07:55:10.209Z,27.65
2022-10-05T07:58:02.982Z,26.50
2022-10-05T08:00:47.253Z,21.12
2022-10-05T08:03:18.980Z,17.73
2022-10-05T08:05:48.427Z,21.85
2022-10-05T08:08:31.768Z,18.92
2022-10-05T08:11:09.412Z,16.30
2022-10-05T08:13:45.605Z,17.95
2022-10-05T08:16:14.740Z,28.00
2022-10-05T08:19:04.346Z,15.13
2022-10-05T08:21:36.007Z,16.17
2022-10-05T08:24:33.215Z,20.62
2022-10-05T08:27:13.640Z,11.33
2022-10-05T08:29:51.662Z,9.78
2022-10-05T08:32:31.898Z,13.20
2022-10-05T08:35:21.896Z,15.75
2022-10-05T08:37:54.845Z,7.53
2022-10-05T08:40:39.315Z,9.43
2022-10-05T08:43:10.908Z,8.13
2022-10-05T08:46:00.617Z,6.97
2022-10-05T08:48:52.924Z,7.78
2022-10-05T08:51:40.929Z,7.37
2022-10-05T08:54:12.582Z,11.12
2022-10-05T08:57:03.729Z,5.80
2022-10-05T08:59:50.382Z,6.40
2022-10-05T09:02:24.055Z,6.10
2022-10-05T09:05:01.309Z,6.25
2022-10-05T09:07:49.981Z,3.02
2022-10-05T09:10:36.434Z,9.45
2022-10-05T09:13:10.806Z,4.90
2022-10-05T09:15:51.307Z,4.72
2022-10-05T09:18:42.051Z,9.13
2022-10-05T09:21:14.273Z,7.35
2022-10-05T09:23:44.614Z,8.58
2022-10-05T09:26:32.617Z,4.72
2022-10-05T09:29:06.750Z,6.65
2022-10-05T09:32:11.709Z,6.97
2022-10-05T09:35:02.089Z,7.00
2022-10-05T09:37:45.936Z,3.52
2022-10-05T09:40:29.425Z,4.40
2022-10-05T09:43:23.760Z,2.65
2022-10-05T09:46:01.231Z,7.67
2022-10-05T09:48:56.870Z,11.22
2022-10-05T09:51:58.768Z,3.05
2022-10-05T09:54:36.087Z,3.98
2022-10-05T09:57:25.599Z,7.37
2022-10-05T10:03:06.885Z,6.70
2022-10-05T10:08:59.882Z,12.23
2022-10-05T10:11:44.418Z,7.95
2022-10-05T10:14:32.353Z,2.80
2022-10-05T10:17:34.837Z,4.95
2022-10-05T10:24:09.106Z,4.87
2022-10-05T10:34:09.695Z,8.35
2022-10-05T10:36:37.057Z,2.55
2022-10-05T10:39:44.221Z,5.53
2022-10-05T10:42:36.484Z,5.97
2022-10-05T10:45:26.582Z,3.98
2022-10-05T10:48:17.437Z,2.75
2022-10-05T10:54:54.163Z,3.65
2022-10-05T10:58:19.694Z,3.83
2022-10-05T11:01:00.642Z,3.22
2022-10-05T11:03:50.266Z,8.53
2022-10-05T11:07:05.736Z,4.00
2022-10-05T11:10:08.881Z,1.42
2022-10-05T11:12:52.802Z,3.00
2022-10-05T11:15:34.280Z,4.05
2022-10-05T11:35:27.837Z,1.85
2022-10-05T11:38:17.268Z,3.95
2022-10-05T11:44:45.267Z,3.20
2022-10-05T11:47:51.427Z,3.55
2022-10-05T11:50:37.114Z,7.08
2022-10-05T11:53:12.187Z,2.30
2022-10-05T12:03:11.163Z,2.80
2022-10-05T12:06:11.714Z,7.65
2022-10-05T12:16:26.279Z,6.75
2022-10-05T12:18:23.709Z,4.20
2022-10-05T12:21:08.856Z,3.08
2022-10-05T12:24:25.987Z,3.37
2022-10-05T12:54:36.660Z,3.40
2022-10-05T13:04:28.051Z,2.12
2022-10-05T13:07:27.633Z,3.00
2022-10-05T13:10:28.505Z,4.75
2022-10-05T13:16:34.761Z,5.33
2022-10-05T13:20:00.650Z,6.65
2022-10-05T13:22:47.056Z,5.10
2022-10-05T13:25:43.690Z,3.98
2022-10-05T13:28:34.578Z,2.35
2022-10-05T13:45:31.993Z,8.23
2022-10-05T13:48:26.005Z,6.97
2022-10-05T13:54:44.588Z,12.10
2022-10-05T14:01:06.282Z,1.87
2022-10-05T14:03:46.945Z,2.65
2022-10-05T14:09:47.706Z,3.35
2022-10-05T14:12:24.837Z,6.58
2022-10-05T14:15:16.549Z,7.05
2022-10-05T14:17:49.803Z,20.57
2022-10-05T14:37:33.454Z,3.15
2022-10-05T15:48:05.670Z,6.20
2022-10-05T15:58:14.338Z,6.67
2022-10-05T16:00:49.538Z,7.17
2022-10-05T16:03:34.907Z,5.42
2022-10-05T16:07:00.637Z,4.40
2022-10-05T16:09:47.794Z,7.58
2022-10-05T16:12:25.126Z,5.00
2022-10-05T16:15:03.062Z,11.08
2022-10-05T16:21:11.582Z,5.00
2022-10-05T16:24:10.783Z,6.65
2022-10-05T16:26:59.834Z,9.83
2022-10-05T16:29:57.401Z,5.03
2022-10-05T16:32:30.309Z,10.50
2022-10-05T16:35:18.661Z,13.90
2022-10-05T16:37:59.263Z,11.38
2022-10-05T16:40:39.916Z,16.95
2022-10-05T16:43:23.295Z,14.13
2022-10-05T16:46:13.410Z,19.15
2022-10-05T16:48:47.460Z,15.30
2022-10-05T16:51:25.276Z,21.25
2022-10-05T16:54:06.617Z,26.82
2022-10-05T16:56:44.333Z,22.13
2022-10-05T16:59:44.946Z,20.52
2022-10-05T17:02:28.440Z,22.60
2022-10-05T17:05:18.198Z,24.52
2022-10-05T17:08:26.974Z,21.17
2022-10-05T17:11:17.395Z,13.05
2022-10-05T17:13:58.078Z,13.95
2022-10-05T17:16:39.399Z,12.58
2022-10-05T17:19:18.452Z,16.65
2022-10-05T17:21:52.624Z,14.78
2022-10-05T17:24:40.775Z,19.00
2022-10-05T17:27:38.849Z,15.15
2022-10-05T17:30:34.773Z,11.80
2022-10-05T17:34:00.958Z,15.10
2022-10-05T17:36:17.325Z,11.48
2022-10-05T17:39:06.327Z,14.40
2022-10-05T17:41:57.668Z,8.08
2022-10-05T17:44:26.196Z,11.05
2022-10-05T17:47:02.305Z,9.50
2022-10-05T17:50:02.587Z,14.68
2022-10-05T17:52:50.609Z,14.05
2022-10-05T17:55:38.750Z,8.93
2022-10-05T17:58:29.499Z,12.15
2022-10-05T18:01:04.493Z,9.08
2022-10-05T18:04:25.746Z,12.78
2022-10-05T18:06:48.201Z,18.50
2022-10-05T18:09:27.196Z,18.73
2022-10-05T18:12:21.827Z,13.38
2022-10-05T18:15:02.030Z,20.23
2022-10-05T18:17:55.449Z,15.83
2022-10-05T18:20:32.745Z,16.60
2022-10-05T18:23:10.353Z,9.90
2022-10-05T18:25:50.678Z,18.65
2022-10-05T18:28:42.928Z,14.73
2022-10-05T18:31:34.348Z,22.05
2022-10-05T18:34:25.854Z,17.42
2022-10-05T18:37:29.567Z,23.07
2022-10-05T18:40:08.668Z,27.32
2022-10-05T18:42:52.200Z,27.55
2022-10-05T18:45:58.579Z,14.70
2022-10-05T18:48:54.276Z,10.20
2022-10-05T18:51:47.279Z,14.37
2022-10-05T18:57:41.555Z,14.03
2022-10-05T19:00:24.004Z,11.53
2022-10-05T19:03:13.704Z,15.60
2022-10-05T19:05:50.727Z,17.15
2022-10-05T19:08:34.185Z,17.50
2022-10-05T19:11:08.332Z,15.33
2022-10-05T19:13:51.618Z,14.35
2022-10-05T19:16:50.072Z,12.25
2022-10-05T19:23:05.368Z,17.27
2022-10-05T19:25:43.500Z,16.83
2022-10-05T19:28:25.554Z,12.07
2022-10-05T19:31:15.144Z,18.07
2022-10-05T19:33:46.859Z,15.72
2022-10-05T19:36:27.251Z,14.53
2022-10-05T19:42:18.467Z,21.27
2022-10-05T19:42:21.374Z,15.15
2022-10-05T19:45:05.825Z,15.80
2022-10-05T19:48:04.815Z,17.47
2022-10-05T19:50:35.537Z,17.50
2022-10-05T19:53:17.313Z,25.13
2022-10-05T19:55:47.107Z,15.37
2022-10-05T19:58:25.205Z,18.97
2022-10-05T20:01:04.350Z,18.57
2022-10-05T20:03:36.193Z,17.80
2022-10-05T20:06:07.094Z,14.98
2022-10-05T20:08:44.779Z,17.30
2022-10-05T20:11:19.302Z,19.90
2022-10-05T20:13:56.969Z,18.27
2022-10-05T20:16:51.755Z,21.50
2022-10-05T20:19:56.617Z,14.65
2022-10-05T20:22:40.522Z,13.35
2022-10-05T20:25:11.368Z,18.23
2022-10-05T20:27:55.570Z,16.67
2022-10-05T20:30:30.976Z,17.07
2022-10-05T20:33:05.580Z,20.43
2022-10-05T20:35:34.217Z,21.73
2022-10-05T20:38:02.756Z,16.73
2022-10-05T20:40:31.753Z,20.10
2022-10-05T20:43:00.462Z,21.43
2022-10-05T20:45:36.855Z,19.17
2022-10-05T20:48:17.517Z,22.07
2022-10-05T21:49:51.510Z,22.20
2022-10-05T21:52:20.495Z,18.40
2022-10-05T21:54:51.908Z,24.27
2022-10-05T21:57:26.550Z,20.53
2022-10-05T21:59:55.247Z,27.60
2022-10-05T22:02:23.830Z,19.60
2022-10-05T22:04:55.201Z,21.07
2022-10-05T22:07:23.832Z,20.43
2022-10-05T22:09:53.362Z,22.77
2022-10-05T22:12:23.594Z,20.27
2022-10-05T22:14:53.798Z,17.43
2022-10-05T22:17:27.214Z,20.90
2022-10-05T22:19:56.922Z,23.07
2022-10-05T22:22:28.589Z,20.67
2022-10-05T22:24:57.364Z,17.63
2022-10-05T22:27:28.622Z,18.47
2022-10-05T22:29:58.680Z,20.27
2022-10-05T22:32:27.324Z,25.47
2022-10-05T22:34:56.127Z,22.30
2022-10-05T22:37:26.951Z,20.03
2022-10-05T22:39:57.489Z,23.67
2022-10-05T22:42:26.209Z,19.20
2022-10-05T22:44:58.720Z,19.17
2022-10-05T22:47:30.006Z,24.20
2022-10-05T22:49:58.700Z,18.77
2022-10-05T22:52:27.868Z,17.33
2022-10-05T22:54:56.540Z,22.23
2022-10-05T22:57:25.126Z,20.73
2022-10-05T22:59:53.737Z,15.23
2022-10-05T23:02:22.321Z,19.67
2022-10-05T23:04:50.962Z,17.77
2022-10-05T23:07:19.591Z,14.20
2022-10-05T23:09:49.478Z,13.57
2022-10-05T23:12:18.136Z,15.33
2022-10-05T23:14:48.296Z,13.60
2022-10-05T23:17:19.891Z,15.13
2022-10-05T23:19:48.532Z,16.83
2022-10-05T23:22:18.629Z,16.97
2022-10-05T23:24:47.326Z,16.93
2022-10-05T23:27:16.224Z,17.00
2022-10-05T23:29:44.915Z,14.07
2022-10-05T23:32:13.598Z,13.20
2022-10-05T23:34:42.235Z,22.57
2022-10-05T23:37:10.845Z,14.30
2022-10-05T23:39:42.031Z,16.67
2022-10-05T23:42:16.327Z,14.57
2022-10-05T23:44:45.004Z,16.57
2022-10-05T23:47:13.526Z,14.57
2022-10-05T23:49:42.237Z,17.57
2022-10-05T23:52:10.919Z,16.07
2022-10-05T23:54:39.500Z,15.13
2022-10-05T23:57:09.687Z,18.93
2022-10-05T23:59:38.181Z,16.87
